Time;durP1;ratioP1;P1;durP2;ratioP2;P2;SDS_P1;SDS_P2;PMS_P1;PMS_P2;Temp;Humidity;BMP_temperature;BMP_pressure;BME280_temperature;BME280_humidity;BME280_pressure;Samples;Min_cycle;Max_cycle;Signal;HPM_P1;HPM_P2
2022/11/15 05:00:17;;;;;;;9.10;6.80;;;8.40;99.90;;;;;;6142305;22;20959;31
2022/11/15 05:05:29;;;;;;;10.00;7.20;;;8.40;99.90;;;;;;4950547;29;20439;-75
2022/11/15 05:07:55;;;;;;;9.40;6.80;;;8.40;99.90;;;;;;4950377;28;20772;-74
2022/11/15 05:10:22;;;;;;;10.27;7.27;;;8.40;99.90;;;;;;4950293;28;21435;-73
2022/11/15 05:12:49;;;;;;;12.57;7.87;;;8.40;99.90;;;;;;4950923;28;20573;-74
2022/11/15 05:15:17;;;;;;;9.00;7.30;;;8.40;99.90;;;;;;4950267;28;20457;-75
2022/11/15 05:17:44;;;;;;;6.80;6.00;;;8.40;99.90;;;;;;4950437;28;20980;-74
2022/11/15 05:20:11;;;;;;;8.00;5.97;;;8.40;99.90;;;;;;4949768;28;20969;-74
2022/11/15 05:22:39;;;;;;;7.83;6.43;;;8.40;99.90;;;;;;4950830;28;20457;-74
2022/11/15 05:25:06;;;;;;;6.50;5.80;;;8.40;99.90;;;;;;4950054;28;20468;-75
2022/11/15 05:27:33;;;;;;;9.60;6.47;;;8.30;99.90;;;;;;4950301;28;20468;-78
2022/11/15 05:30:00;;;;;;;9.00;6.13;;;8.30;99.90;;;;;;4950606;29;20521;-73
2022/11/15 05:32:29;;;;;;;13.13;8.60;;;8.30;99.90;;;;;;4949760;28;20485;-74
2022/11/15 05:34:56;;;;;;;12.97;8.90;;;8.30;99.90;;;;;;4950150;28;20920;-75
2022/11/15 05:37:23;;;;;;;14.13;8.93;;;8.20;99.90;;;;;;4949833;29;20473;-73
2022/11/15 05:39:50;;;;;;;12.30;8.33;;;8.20;99.90;;;;;;4949823;29;20942;-67
2022/11/15 05:42:17;;;;;;;14.03;8.60;;;8.20;99.90;;;;;;4950206;28;20477;-67
2022/11/15 05:44:48;;;;;;;14.50;8.40;;;8.20;99.90;;;;;;4949884;29;20457;-67
2022/11/15 05:47:18;;;;;;;12.90;8.27;;;8.20;99.90;;;;;;4950133;28;20544;-66
2022/11/15 05:49:48;;;;;;;16.17;10.20;;;8.10;99.90;;;;;;4950112;29;20500;-66
2022/11/15 05:52:17;;;;;;;12.87;8.60;;;8.10;99.90;;;;;;4949803;28;20792;-76
2022/11/15 05:54:44;;;;;;;13.33;8.77;;;8.10;99.90;;;;;;4949320;29;20457;-77
2022/11/15 05:57:11;;;;;;;13.53;8.60;;;8.10;99.90;;;;;;4949979;29;20479;-76
2022/11/15 05:59:40;;;;;;;10.40;8.07;;;8.10;99.90;;;;;;4950164;28;20456;-77
2022/11/15 06:02:07;;;;;;;12.07;8.30;;;8.10;99.90;;;;;;4949490;28;20919;-78
2022/11/15 06:04:34;;;;;;;11.00;7.30;;;8.00;99.90;;;;;;4949234;29;20469;-76
2022/11/15 06:07:02;;;;;;;8.57;6.93;;;8.00;99.90;;;;;;4949001;29;20457;-78
2022/11/15 06:09:29;;;;;;;9.70;7.33;;;8.00;99.90;;;;;;4949723;29;21020;-78
2022/11/15 06:11:56;;;;;;;11.40;7.30;;;8.00;99.90;;;;;;4950253;28;20489;-78
2022/11/15 06:14:23;;;;;;;10.00;6.70;;;8.00;99.90;;;;;;4951040;29;20465;-77
2022/11/15 06:16:50;;;;;;;12.27;8.20;;;8.00;99.90;;;;;;4950451;29;20950;-77
2022/11/15 06:19:16;;;;;;;10.53;8.47;;;8.10;99.90;;;;;;4951086;29;20465;-79
2022/11/15 06:21:43;;;;;;;11.67;8.67;;;8.10;99.90;;;;;;4951078;28;20481;-78
2022/11/15 06:24:11;;;;;;;11.83;9.70;;;8.10;99.90;;;;;;4949901;29;20468;-77
2022/11/15 06:26:38;;;;;;;13.73;10.00;;;8.10;99.90;;;;;;4950507;29;20465;-77
2022/11/15 06:29:05;;;;;;;13.80;10.40;;;8.10;99.90;;;;;;4950888;28;20465;-77
2022/11/15 06:31:32;;;;;;;14.87;11.40;;;8.10;99.90;;;;;;4950736;28;20481;-78
2022/11/15 06:33:58;;;;;;;13.33;10.10;;;8.00;99.90;;;;;;4950110;28;20461;-77
2022/11/15 06:36:25;;;;;;;15.27;10.80;;;8.00;99.90;;;;;;4950842;28;20856;-78
2022/11/15 06:38:52;;;;;;;10.33;8.80;;;8.00;99.90;;;;;;4951313;28;20464;-78
2022/11/15 06:41:21;;;;;;;13.50;8.80;;;8.00;99.90;;;;;;4949768;28;20481;-77
2022/11/15 06:43:47;;;;;;;9.63;8.73;;;8.00;99.90;;;;;;4950000;29;20465;-78
2022/11/15 06:46:14;;;;;;;10.30;9.17;;;7.90;99.90;;;;;;4949423;28;20469;-79
2022/11/15 06:48:41;;;;;;;13.47;9.00;;;8.00;99.90;;;;;;4950354;29;20468;-79
2022/11/15 06:51:08;;;;;;;10.80;8.73;;;8.00;99.90;;;;;;4949856;28;20497;-78
2022/11/15 06:53:35;;;;;;;8.70;7.23;;;8.00;99.90;;;;;;4950235;28;20457;-80
2022/11/15 06:56:04;;;;;;;8.60;7.63;;;8.00;99.90;;;;;;4949502;28;20954;-79
2022/11/15 06:58:33;;;;;;;10.10;7.90;;;8.00;99.90;;;;;;4950760;29;20528;-79
2022/11/15 07:01:00;;;;;;;11.80;8.53;;;8.00;99.90;;;;;;4950571;28;20867;-79
2022/11/15 07:03:27;;;;;;;11.00;7.43;;;8.00;99.90;;;;;;4950217;29;20914;-79
2022/11/15 07:05:55;;;;;;;11.30;7.10;;;7.90;99.90;;;;;;4949557;29;21009;-79
2022/11/15 07:08:22;;;;;;;11.13;7.80;;;7.90;99.90;;;;;;4950484;28;20472;-80
2022/11/15 07:10:50;;;;;;;11.80;7.90;;;7.90;99.90;;;;;;4950895;28;20497;-79
2022/11/15 07:13:17;;;;;;;12.43;7.63;;;8.00;99.90;;;;;;4950690;29;20461;-78
2022/11/15 07:15:45;;;;;;;13.80;7.70;;;7.90;99.90;;;;;;4949893;29;21442;-78
2022/11/15 07:18:12;;;;;;;10.00;7.03;;;7.90;99.90;;;;;;4951401;29;20465;-78
2022/11/15 07:20:39;;;;;;;13.33;8.90;;;7.90;99.90;;;;;;4951398;28;20482;-78
2022/11/15 07:23:06;;;;;;;22.43;9.33;;;7.90;99.90;;;;;;4951720;28;20465;-80
2022/11/15 07:25:34;;;;;;;11.87;9.57;;;8.00;99.90;;;;;;4950534;29;20972;-81
2022/11/15 07:28:01;;;;;;;12.43;9.43;;;7.90;99.90;;;;;;4949939;29;20481;-80
2022/11/15 07:30:28;;;;;;;10.40;9.30;;;8.00;99.90;;;;;;4949621;28;20493;-79
2022/11/15 07:32:57;;;;;;;16.03;9.60;;;8.00;99.90;;;;;;4949438;29;20806;-80
2022/11/15 07:35:25;;;;;;;13.87;10.27;;;8.00;99.90;;;;;;4949458;29;20462;-80
2022/11/15 07:37:56;;;;;;;14.30;10.50;;;8.00;99.90;;;;;;4948389;28;20461;-79
2022/11/15 07:40:23;;;;;;;15.70;9.83;;;8.00;99.90;;;;;;4949018;28;20512;-80
2022/11/15 07:42:56;;;;;;;15.57;9.40;;;8.00;99.90;;;;;;4948347;29;20457;-79
2022/11/15 07:45:26;;;;;;;10.60;8.87;;;8.00;99.90;;;;;;4947829;28;20457;-76
2022/11/15 07:47:53;;;;;;;13.33;8.23;;;8.00;99.90;;;;;;4948160;29;20469;-77
2022/11/15 07:50:21;;;;;;;8.00;7.00;;;8.10;99.90;;;;;;4947763;28;21013;-76
2022/11/15 07:52:48;;;;;;;8.53;6.67;;;8.10;99.90;;;;;;4947327;29;20937;-78
2022/11/15 07:55:15;;;;;;;8.27;6.93;;;8.20;99.90;;;;;;4947905;29;20461;-77
2022/11/15 07:57:42;;;;;;;8.57;7.40;;;8.20;99.90;;;;;;4948040;28;20465;-77
2022/11/15 08:00:10;;;;;;;10.93;7.27;;;8.20;99.90;;;;;;4947875;29;20464;-78
2022/11/15 08:02:37;;;;;;;10.97;7.73;;;8.30;99.90;;;;;;4947595;29;20480;-78
2022/11/15 08:05:04;;;;;;;11.87;7.20;;;8.30;99.90;;;;;;4947992;29;20828;-79
2022/11/15 08:07:32;;;;;;;8.70;6.33;;;8.30;99.90;;;;;;4949164;29;20826;-80
2022/11/15 08:10:00;;;;;;;11.20;6.83;;;8.40;99.90;;;;;;4947800;29;20497;-76
2022/11/15 08:12:28;;;;;;;18.07;6.43;;;8.40;99.90;;;;;;4947724;28;20489;-77
2022/11/15 08:14:56;;;;;;;8.27;6.23;;;8.40;99.90;;;;;;4947179;29;20465;-77
2022/11/15 08:17:23;;;;;;;8.37;6.10;;;8.40;99.90;;;;;;4947768;29;20461;-77
2022/11/15 08:19:49;;;;;;;8.33;5.87;;;8.50;99.90;;;;;;4947150;29;20458;-77
2022/11/15 08:22:16;;;;;;;11.63;8.20;;;8.60;99.90;;;;;;4947464;28;20477;-77
2022/11/15 08:24:45;;;;;;;10.90;7.27;;;8.70;99.90;;;;;;4947180;29;20465;-78
2022/11/15 08:27:15;;;;;;;14.60;7.67;;;8.70;99.90;;;;;;4947329;29;20465;-78
2022/11/15 08:29:43;;;;;;;12.23;7.30;;;8.80;99.90;;;;;;4947731;29;20465;-78
2022/11/15 08:32:10;;;;;;;9.63;7.43;;;9.00;99.90;;;;;;4947557;28;20499;-79
2022/11/15 08:34:37;;;;;;;15.17;8.03;;;9.00;99.90;;;;;;4946139;29;20476;-77
2022/11/15 08:37:04;;;;;;;11.67;8.43;;;9.10;99.90;;;;;;4947195;29;20457;-77
2022/11/15 08:39:31;;;;;;;9.20;7.40;;;9.20;99.90;;;;;;4947415;29;20468;-78
2022/11/15 08:42:00;;;;;;;11.97;10.70;;;9.30;99.90;;;;;;4947260;28;20474;-77
2022/11/15 08:44:26;;;;;;;15.10;11.73;;;9.50;99.90;;;;;;4946948;28;20473;-76
2022/11/15 08:46:53;;;;;;;18.63;14.00;;;9.60;99.90;;;;;;4947010;28;20461;-77
2022/11/15 08:49:20;;;;;;;12.93;11.60;;;9.70;99.90;;;;;;4947277;28;20465;-77
2022/11/15 08:51:47;;;;;;;11.13;9.97;;;9.90;99.90;;;;;;4947222;28;20501;-77
2022/11/15 08:54:13;;;;;;;9.17;7.53;;;10.10;99.90;;;;;;4946254;29;20472;-76
2022/11/15 08:56:40;;;;;;;9.43;7.40;;;10.30;99.90;;;;;;4947144;29;20458;-80
2022/11/15 08:59:08;;;;;;;11.27;7.10;;;10.40;99.90;;;;;;4947562;29;20461;-77
2022/11/15 09:01:35;;;;;;;10.87;7.70;;;10.40;99.90;;;;;;4946626;28;20504;-77
2022/11/15 09:04:03;;;;;;;9.33;7.20;;;10.40;99.90;;;;;;4946845;29;20911;-77
2022/11/15 09:06:30;;;;;;;7.97;7.03;;;10.40;99.90;;;;;;4947198;29;20465;-77
2022/11/15 09:08:57;;;;;;;14.43;8.07;;;10.50;99.90;;;;;;4947055;28;20461;-80
2022/11/15 09:11:24;;;;;;;11.17;8.10;;;10.60;99.90;;;;;;4946627;28;20501;-79
2022/11/15 09:13:51;;;;;;;9.40;6.87;;;10.70;99.90;;;;;;4946285;28;20465;-79
2022/11/15 09:16:19;;;;;;;8.30;5.87;;;10.80;99.90;;;;;;4946583;29;20461;-79
2022/11/15 09:18:46;;;;;;;7.00;6.17;;;10.90;99.90;;;;;;4947257;29;20836;-79
2022/11/15 09:21:13;;;;;;;9.90;6.00;;;11.10;99.90;;;;;;4946957;28;20485;-79
2022/11/15 09:23:40;;;;;;;9.03;5.93;;;11.20;99.90;;;;;;4946865;28;20484;-78
2022/11/15 09:26:07;;;;;;;8.37;6.27;;;11.50;99.90;;;;;;4946278;28;20957;-78
2022/11/15 09:28:34;;;;;;;8.57;6.20;;;11.70;99.90;;;;;;4949084;29;20462;-78
2022/11/15 09:31:05;;;;;;;11.60;5.60;;;11.90;99.90;;;;;;4949269;28;20516;-78
2022/11/15 09:33:33;;;;;;;10.90;4.70;;;12.00;99.90;;;;;;4948897;29;20467;-78
2022/11/15 09:36:02;;;;;;;6.07;4.63;;;12.00;99.90;;;;;;4948199;28;20484;-79
2022/11/15 09:38:29;;;;;;;9.70;5.10;;;12.00;99.90;;;;;;4948995;29;20469;-78
2022/11/15 09:41:11;;;;;;;7.00;4.47;;;12.20;99.90;;;;;;4949069;28;20483;-78
2022/11/15 09:43:47;;;;;;;4.70;4.20;;;12.20;99.90;;;;;;4948921;28;20448;-78
2022/11/15 09:46:18;;;;;;;5.80;4.50;;;12.30;99.90;;;;;;4949213;28;20467;-77
2022/11/15 09:48:55;;;;;;;6.40;4.50;;;12.40;99.90;;;;;;4952404;29;20472;-79
2022/11/15 09:51:27;;;;;;;8.00;5.40;;;12.50;99.90;;;;;;4952358;28;20501;-80
2022/11/15 09:54:01;;;;;;;5.80;4.47;;;12.50;99.90;;;;;;4952596;29;20456;-80
2022/11/15 09:56:31;;;;;;;6.63;4.83;;;12.70;99.90;;;;;;4952446;28;20434;-78
2022/11/15 09:59:11;;;;;;;7.07;5.27;;;12.90;99.90;;;;;;4952269;29;20472;-79
2022/11/15 10:01:45;;;;;;;7.20;5.23;;;13.10;99.90;;;;;;4949695;28;20492;-79
2022/11/15 10:04:14;;;;;;;9.33;5.00;;;13.20;99.90;;;;;;4949347;29;20450;-79
2022/11/15 10:06:47;;;;;;;6.70;4.70;;;13.20;99.90;;;;;;4949724;29;20733;-79
2022/11/15 10:09:17;;;;;;;10.43;5.13;;;13.20;99.90;;;;;;4949758;29;20851;-79
2022/11/15 10:11:44;;;;;;;6.83;5.40;;;13.20;99.90;;;;;;4949811;28;20496;-79
2022/11/15 10:14:14;;;;;;;11.37;6.03;;;13.30;99.90;;;;;;4949312;29;20866;-79
2022/11/15 10:17:05;;;;;;;8.40;5.30;;;13.40;99.90;;;;;;4949394;28;20458;-79
2022/11/15 10:19:41;;;;;;;9.87;5.40;;;13.50;99.90;;;;;;4949775;29;20462;-78
2022/11/15 10:22:22;;;;;;;6.90;4.60;;;13.60;99.90;;;;;;4949307;28;20488;-80
2022/11/15 10:24:51;;;;;;;7.20;5.00;;;13.60;99.90;;;;;;4948674;29;20457;-79
2022/11/15 10:27:19;;;;;;;7.23;4.43;;;13.80;99.90;;;;;;4949840;28;20461;-79
2022/11/15 10:29:48;;;;;;;7.70;4.47;;;13.90;99.90;;;;;;4949604;29;20453;-79
2022/11/15 10:32:17;;;;;;;5.77;3.70;;;13.90;99.90;;;;;;4949178;28;20501;-79
2022/11/15 10:34:46;;;;;;;7.60;3.60;;;14.00;99.90;;;;;;4948631;29;20466;-79
2022/11/15 10:37:13;;;;;;;6.57;3.70;;;14.10;99.90;;;;;;4950797;28;20476;-78
2022/11/15 10:39:40;;;;;;;10.60;4.43;;;14.10;99.90;;;;;;4951690;29;20453;-78
2022/11/15 10:42:18;;;;;;;4.97;3.90;;;14.20;99.90;;;;;;4951319;28;20477;-79
2022/11/15 10:44:46;;;;;;;5.03;3.67;;;14.20;99.90;;;;;;4950859;29;20662;-79
2022/11/15 10:47:28;;;;;;;7.50;3.70;;;14.20;99.90;;;;;;4951431;29;20469;-79
2022/11/15 10:49:59;;;;;;;6.57;3.37;;;14.20;99.90;;;;;;4951399;28;20450;-78
2022/11/15 10:52:27;;;;;;;8.40;3.50;;;14.20;99.90;;;;;;4951948;28;20507;-78
2022/11/15 10:54:58;;;;;;;7.90;3.67;;;14.30;99.90;;;;;;4950299;29;20552;-78
2022/11/15 10:57:27;;;;;;;12.50;3.67;;;14.30;99.90;;;;;;4951558;28;20441;-78
2022/11/15 10:59:57;;;;;;;7.23;3.87;;;14.30;99.90;;;;;;4951339;29;20462;-79
2022/11/15 11:02:33;;;;;;;6.20;4.07;;;14.40;99.90;;;;;;4950106;28;20485;-78
2022/11/15 11:05:02;;;;;;;5.20;3.50;;;14.40;99.90;;;;;;4950865;28;20452;-78
2022/11/15 11:07:30;;;;;;;5.00;3.30;;;14.50;99.90;;;;;;4951153;28;20469;-77
2022/11/15 11:10:04;;;;;;;4.50;3.13;;;14.60;99.90;;;;;;4951301;29;20474;-79
2022/11/15 11:12:33;;;;;;;8.67;4.47;;;14.80;99.90;;;;;;4951258;28;20497;-78
2022/11/15 11:15:02;;;;;;;9.97;4.63;;;14.70;99.90;;;;;;4950737;29;20461;-79
2022/11/15 11:17:44;;;;;;;7.90;4.20;;;14.80;99.90;;;;;;4950260;29;20458;-79
2022/11/15 11:20:21;;;;;;;10.23;5.77;;;14.70;99.90;;;;;;4950800;28;20452;-79
2022/11/15 11:23:03;;;;;;;7.80;5.00;;;14.70;99.90;;;;;;4949889;29;20821;-78
2022/11/15 11:25:36;;;;;;;9.80;5.40;;;14.70;99.90;;;;;;4949146;29;20452;-78
2022/11/15 11:28:21;;;;;;;7.43;5.13;;;14.70;99.90;;;;;;4949842;28;20467;-78
2022/11/15 11:30:59;;;;;;;9.87;4.83;;;14.70;99.90;;;;;;4948802;28;20497;-79
2022/11/15 11:33:32;;;;;;;12.27;4.90;;;14.60;99.90;;;;;;4949215;29;20924;-78
2022/11/15 11:36:11;;;;;;;7.90;4.50;;;14.60;99.90;;;;;;4949056;29;20955;-78
2022/11/15 11:38:58;;;;;;;6.47;4.47;;;14.60;99.90;;;;;;4950115;29;20445;-78
2022/11/15 11:41:43;;;;;;;12.70;5.00;;;14.70;99.90;;;;;;4949802;28;20484;-80
2022/11/15 11:44:24;;;;;;;8.93;5.20;;;14.70;99.90;;;;;;4949183;29;20449;-79
2022/11/15 11:46:56;;;;;;;10.63;5.53;;;14.70;99.90;;;;;;4949636;29;20461;-78
2022/11/15 11:49:30;;;;;;;8.13;5.20;;;14.80;99.90;;;;;;4949424;29;20452;-78
2022/11/15 11:52:04;;;;;;;14.20;5.20;;;14.80;99.90;;;;;;4949801;28;20502;-78
2022/11/15 11:54:46;;;;;;;7.17;5.30;;;14.90;99.90;;;;;;4948676;29;20465;-80
2022/11/15 11:57:18;;;;;;;7.87;4.93;;;14.90;99.90;;;;;;4949590;29;20457;-79
2022/11/15 11:59:49;;;;;;;15.03;5.63;;;15.00;99.90;;;;;;4950142;29;20455;-78
2022/11/15 12:02:21;;;;;;;14.97;7.00;;;15.10;99.90;;;;;;4949709;28;20486;-78
2022/11/15 12:04:52;;;;;;;8.33;5.97;;;15.20;99.90;;;;;;4948349;29;20572;-79
2022/11/15 12:07:25;;;;;;;16.60;6.00;;;15.30;99.90;;;;;;4949117;28;20471;-77
2022/11/15 12:09:59;;;;;;;8.43;5.40;;;15.40;99.90;;;;;;4949020;28;20508;-78
2022/11/15 12:12:32;;;;;;;9.87;5.67;;;15.50;99.90;;;;;;4949383;28;20501;-78
2022/11/15 12:15:03;;;;;;;5.70;4.13;;;15.50;99.90;;;;;;4948374;29;20473;-78
2022/11/15 12:17:32;;;;;;;14.20;5.17;;;15.60;99.90;;;;;;4949124;29;20462;-78
2022/11/15 12:20:00;;;;;;;9.90;4.23;;;15.60;99.90;;;;;;4948949;29;20461;-78
2022/11/15 12:22:39;;;;;;;6.13;3.67;;;15.60;99.90;;;;;;4949128;28;20478;-78
2022/11/15 12:25:14;;;;;;;8.00;3.57;;;15.60;99.90;;;;;;4948270;29;20902;-78
2022/11/15 12:27:47;;;;;;;5.53;3.20;;;15.70;99.90;;;;;;4948791;29;20969;-81
2022/11/15 12:30:17;;;;;;;5.60;3.57;;;15.70;99.90;;;;;;4948339;28;20462;-78
2022/11/15 12:32:52;;;;;;;3.83;3.40;;;15.80;99.90;;;;;;4949121;29;20507;-78
2022/11/15 12:35:27;;;;;;;7.33;3.30;;;15.90;99.90;;;;;;4948455;29;20556;-77
2022/11/15 12:37:56;;;;;;;5.00;3.27;;;15.90;99.90;;;;;;4948714;28;20471;-78
2022/11/15 12:40:31;;;;;;;4.13;3.00;;;15.90;99.90;;;;;;4948865;28;20461;-77
2022/11/15 12:43:04;;;;;;;5.70;2.47;;;15.90;99.90;;;;;;4948892;29;20457;-82
2022/11/15 12:45:33;;;;;;;3.80;2.37;;;15.90;99.90;;;;;;4947481;28;20460;-78
2022/11/15 12:48:38;;;;;;;5.57;2.60;;;15.90;99.90;;;;;;4946966;29;20462;-78
2022/11/15 12:51:05;;;;;;;5.47;3.47;;;15.80;99.90;;;;;;4945455;28;20535;-78
2022/11/15 12:53:35;;;;;;;4.77;3.20;;;15.80;99.90;;;;;;4948187;28;20453;-77
2022/11/15 12:56:23;;;;;;;4.63;3.00;;;15.90;99.90;;;;;;4947670;29;20564;-77
2022/11/15 12:58:56;;;;;;;4.07;2.80;;;15.90;99.90;;;;;;4948695;29;20433;-78
2022/11/15 13:02:08;;;;;;;3.80;2.83;;;16.00;99.90;;;;;;4947759;28;20574;-78
2022/11/15 13:04:35;;;;;;;3.87;2.80;;;16.10;99.90;;;;;;4947721;29;20446;-79
2022/11/15 13:07:04;;;;;;;4.47;2.87;;;16.10;99.90;;;;;;4948316;29;20457;-78
2022/11/15 13:09:55;;;;;;;5.60;2.97;;;16.20;99.90;;;;;;4947812;28;20818;-78
2022/11/15 13:12:54;;;;;;;3.73;2.93;;;16.20;99.90;;;;;;4948558;28;20505;-78
2022/11/15 13:15:54;;;;;;;9.20;4.80;;;16.20;99.90;;;;;;4947455;29;20903;-78
2022/11/15 13:18:32;;;;;;;3.70;3.30;;;16.30;99.90;;;;;;4945858;28;20469;-78
2022/11/15 13:21:00;;;;;;;6.50;3.30;;;16.30;99.90;;;;;;4948895;28;20483;-79
2022/11/15 13:23:27;;;;;;;4.13;3.03;;;16.30;99.90;;;;;;4952245;29;20453;-77
2022/11/15 13:26:13;;;;;;;5.87;3.83;;;16.30;99.90;;;;;;4951804;29;20464;-79
2022/11/15 13:28:45;;;;;;;5.63;3.27;;;16.40;99.90;;;;;;4952011;29;20456;-77
2022/11/15 13:31:28;;;;;;;8.23;3.60;;;16.30;99.90;;;;;;4951477;28;20500;-78
2022/11/15 13:33:59;;;;;;;9.03;4.20;;;16.30;99.90;;;;;;4951647;28;20461;-77
2022/11/15 13:36:28;;;;;;;9.60;5.80;;;16.30;99.90;;;;;;4951306;29;20458;-77
2022/11/15 13:38:57;;;;;;;10.10;8.37;;;16.20;99.90;;;;;;4952135;29;20461;-77
2022/11/15 13:41:27;;;;;;;12.60;8.67;;;16.20;99.90;;;;;;4951828;28;20600;-80
2022/11/15 13:43:56;;;;;;;11.07;6.40;;;16.20;99.90;;;;;;4950943;29;20461;-65
2022/11/15 13:46:24;;;;;;;5.23;3.97;;;16.10;99.90;;;;;;4950681;29;20469;-65
2022/11/15 13:48:56;;;;;;;7.33;3.80;;;16.00;99.90;;;;;;4950770;29;20460;-65
2022/11/15 13:51:32;;;;;;;4.97;3.33;;;16.00;99.90;;;;;;4950367;28;20851;-78
2022/11/15 13:54:02;;;;;;;5.83;3.70;;;16.00;99.90;;;;;;4951869;29;20456;-78
2022/11/15 13:56:33;;;;;;;8.57;3.30;;;16.00;99.90;;;;;;4952117;29;20458;-78
2022/11/15 13:59:00;;;;;;;3.93;3.10;;;16.00;99.90;;;;;;4951913;29;20810;-78
2022/11/15 14:01:32;;;;;;;5.00;3.70;;;16.00;99.90;;;;;;4951364;28;20485;-78
2022/11/15 14:04:01;;;;;;;5.13;3.10;;;16.00;99.90;;;;;;4951421;29;20554;-79
2022/11/15 14:06:30;;;;;;;3.97;2.83;;;16.00;99.90;;;;;;4951316;28;20671;-78
2022/11/15 14:09:29;;;;;;;4.23;3.83;;;16.00;99.90;;;;;;4951818;29;20462;-78
2022/11/15 14:11:58;;;;;;;6.40;3.47;;;15.90;99.90;;;;;;4951795;28;20497;-78
2022/11/15 14:14:26;;;;;;;3.50;2.80;;;15.90;99.90;;;;;;4950951;28;20564;-77
2022/11/15 14:16:54;;;;;;;4.30;2.83;;;15.90;99.90;;;;;;4951690;29;20560;-78
2022/11/15 14:19:39;;;;;;;5.17;3.40;;;15.90;99.90;;;;;;4951266;29;20489;-77
2022/11/15 14:22:20;;;;;;;7.53;3.77;;;15.90;99.90;;;;;;4951071;28;20938;-80
2022/11/15 14:25:04;;;;;;;4.10;3.00;;;15.90;99.90;;;;;;4950444;28;20902;-78
2022/11/15 14:27:33;;;;;;;9.37;3.30;;;15.80;99.90;;;;;;4951031;29;20496;-78
2022/11/15 14:30:00;;;;;;;4.33;3.37;;;15.70;99.90;;;;;;4950992;29;20473;-78
2022/11/15 14:32:29;;;;;;;6.60;4.50;;;15.80;99.90;;;;;;4950031;28;20877;-77
2022/11/15 14:34:58;;;;;;;7.47;3.50;;;15.80;99.90;;;;;;4950205;29;20465;-78
2022/11/15 14:37:27;;;;;;;6.13;3.43;;;15.80;99.90;;;;;;4950823;28;20469;-78
2022/11/15 14:39:54;;;;;;;8.27;3.10;;;15.80;99.90;;;;;;4950605;29;20842;-77
2022/11/15 14:42:22;;;;;;;8.50;3.10;;;15.70;99.90;;;;;;4950642;28;20584;-80
2022/11/15 14:44:51;;;;;;;4.40;3.00;;;15.70;99.90;;;;;;4949913;28;20462;-78
2022/11/15 14:47:18;;;;;;;4.70;2.97;;;15.70;99.90;;;;;;4950376;29;20644;-77
2022/11/15 14:49:45;;;;;;;4.67;2.60;;;15.70;99.90;;;;;;4950649;29;20464;-78
2022/11/15 14:52:25;;;;;;;4.23;2.77;;;15.70;99.90;;;;;;4949122;28;20492;-77
2022/11/15 14:54:52;;;;;;;3.50;2.80;;;15.70;99.90;;;;;;4948696;29;20465;-77
2022/11/15 14:57:19;;;;;;;6.50;3.30;;;15.60;99.90;;;;;;4950443;29;20480;-80
2022/11/15 14:59:46;;;;;;;3.37;2.90;;;15.60;99.90;;;;;;4950560;29;20461;-78
2022/11/15 15:02:19;;;;;;;5.90;2.90;;;15.60;99.90;;;;;;4950532;28;20485;-77
2022/11/15 15:04:46;;;;;;;5.13;3.20;;;15.50;99.90;;;;;;4950062;29;20446;-77
2022/11/15 15:07:13;;;;;;;4.47;3.47;;;15.40;99.90;;;;;;4949570;28;20953;-78
2022/11/15 15:09:40;;;;;;;3.93;3.10;;;15.40;99.90;;;;;;4950669;29;20464;-78
2022/11/15 15:12:16;;;;;;;5.70;3.40;;;15.30;99.90;;;;;;4950242;28;21002;-78
2022/11/15 15:14:43;;;;;;;6.03;3.17;;;15.30;99.90;;;;;;4949929;29;20448;-77
2022/11/15 15:17:10;;;;;;;7.53;4.00;;;15.20;99.90;;;;;;4950607;29;20458;-79
2022/11/15 15:19:38;;;;;;;8.10;3.60;;;15.10;99.90;;;;;;4950513;29;20457;-79
2022/11/15 15:22:05;;;;;;;7.73;3.67;;;15.00;99.90;;;;;;4949916;28;20474;-80
2022/11/15 15:24:32;;;;;;;5.40;3.90;;;15.00;99.90;;;;;;4949953;28;20471;-79
2022/11/15 15:26:59;;;;;;;8.10;4.20;;;14.90;99.90;;;;;;4950756;29;20462;-78
2022/11/15 15:29:25;;;;;;;8.27;4.90;;;14.90;99.90;;;;;;4950016;29;20462;-79
2022/11/15 15:31:52;;;;;;;5.60;4.40;;;14.80;99.90;;;;;;4950327;28;20481;-79
2022/11/15 15:34:19;;;;;;;11.30;4.77;;;14.80;99.90;;;;;;4949024;29;20470;-78
2022/11/15 15:36:47;;;;;;;7.23;4.47;;;14.80;99.90;;;;;;4950069;29;20464;-78
2022/11/15 15:39:14;;;;;;;7.47;4.07;;;14.70;99.90;;;;;;4949950;29;20464;-78
2022/11/15 15:41:41;;;;;;;9.67;4.27;;;14.70;99.90;;;;;;4949869;28;20485;-79
2022/11/15 15:44:07;;;;;;;7.80;5.17;;;14.60;99.90;;;;;;4949166;28;20463;-78
2022/11/15 15:46:35;;;;;;;7.83;5.50;;;14.60;99.90;;;;;;4949965;29;20461;-78
2022/11/15 15:49:01;;;;;;;8.37;5.50;;;14.50;99.90;;;;;;4949779;29;20462;-78
2022/11/15 15:51:28;;;;;;;6.60;5.00;;;14.40;99.90;;;;;;4949573;28;20485;-78
2022/11/15 15:53:57;;;;;;;7.90;4.80;;;14.40;99.90;;;;;;4949337;29;20497;-78
2022/11/15 15:56:25;;;;;;;7.57;4.90;;;14.30;99.90;;;;;;4949336;29;21005;-77
2022/11/15 15:58:52;;;;;;;7.33;5.30;;;14.30;99.90;;;;;;4949371;29;20977;-78
2022/11/15 16:01:19;;;;;;;6.37;5.03;;;14.30;99.90;;;;;;4949639;28;20516;-77
2022/11/15 16:03:46;;;;;;;8.03;5.10;;;14.30;99.90;;;;;;4949760;29;20472;-78
2022/11/15 16:06:44;;;;;;;7.40;4.20;;;14.20;99.90;;;;;;4948142;29;20461;-77
2022/11/15 16:09:14;;;;;;;5.40;4.20;;;14.10;99.90;;;;;;4926817;28;20970;-78
2022/11/15 16:11:41;;;;;;;6.30;4.50;;;14.10;99.90;;;;;;4949267;28;20485;-77
2022/11/15 16:14:08;;;;;;;7.40;4.13;;;14.10;99.90;;;;;;4948637;29;20575;-80
2022/11/15 16:16:36;;;;;;;4.73;3.33;;;14.00;99.90;;;;;;4948502;28;20988;-73
2022/11/15 16:19:04;;;;;;;4.70;3.50;;;13.90;99.90;;;;;;4947925;29;20468;-73
2022/11/15 16:21:31;;;;;;;7.67;4.40;;;13.90;99.90;;;;;;4947801;28;20864;-73
2022/11/15 16:23:58;;;;;;;8.50;3.83;;;13.80;99.90;;;;;;4947434;29;20646;-74
2022/11/15 16:26:28;;;;;;;7.50;3.20;;;13.70;99.90;;;;;;4947934;29;20542;-73
2022/11/15 16:28:55;;;;;;;13.47;10.20;;;13.70;99.90;;;;;;4947877;28;20934;-73
2022/11/15 16:31:22;;;;;;;6.33;5.13;;;13.70;99.90;;;;;;4947613;28;20492;-73
2022/11/15 16:33:48;;;;;;;5.83;5.00;;;13.60;99.90;;;;;;4947615;29;20497;-73
2022/11/15 16:36:20;;;;;;;6.80;6.10;;;13.60;99.90;;;;;;4947369;29;20469;-74
2022/11/15 16:38:47;;;;;;;6.70;5.60;;;13.60;99.90;;;;;;4947694;29;20450;-73
2022/11/15 16:41:13;;;;;;;7.10;5.47;;;13.40;99.90;;;;;;4947665;28;20473;-73
2022/11/15 16:43:42;;;;;;;5.03;4.50;;;13.40;99.90;;;;;;4947213;29;20466;-74
2022/11/15 16:46:14;;;;;;;5.20;4.47;;;13.40;99.90;;;;;;4946693;29;20458;-73
2022/11/15 16:48:41;;;;;;;5.73;5.07;;;13.40;99.90;;;;;;4947858;29;20445;-73
2022/11/15 16:51:09;;;;;;;7.77;6.50;;;13.40;99.90;;;;;;4947341;28;20485;-74
2022/11/15 16:53:36;;;;;;;8.43;6.53;;;13.40;99.90;;;;;;4947465;29;20489;-74
2022/11/15 16:56:03;;;;;;;7.43;5.03;;;13.40;99.90;;;;;;4948841;28;20461;-73
2022/11/15 16:58:32;;;;;;;7.60;4.33;;;13.40;99.90;;;;;;4953687;28;20961;-73
2022/11/15 17:01:00;;;;;;;5.67;5.10;;;13.40;99.90;;;;;;4953688;28;20493;-75
2022/11/15 17:03:27;;;;;;;6.87;4.77;;;13.30;99.90;;;;;;4953654;29;20456;-74
2022/11/15 17:05:57;;;;;;;7.50;5.13;;;13.30;99.90;;;;;;4953288;28;20461;-74
2022/11/15 17:08:24;;;;;;;10.00;5.50;;;13.30;99.90;;;;;;4954002;28;20453;-73
2022/11/15 17:10:51;;;;;;;6.70;5.03;;;13.30;99.90;;;;;;4953772;28;20893;-74
2022/11/15 17:13:18;;;;;;;6.95;5.00;;;13.30;99.90;;;;;;4953285;28;20734;-73
2022/11/15 17:15:45;;;;;;;5.00;4.10;;;13.30;99.90;;;;;;4952943;29;20217;-75
2022/11/15 17:18:14;;;;;;;9.80;5.00;;;13.30;99.90;;;;;;4953661;29;20464;-74
2022/11/15 17:20:41;;;;;;;8.30;5.13;;;13.30;99.90;;;;;;4953401;28;20495;-75
2022/11/15 17:23:13;;;;;;;7.80;5.27;;;13.30;99.90;;;;;;4953259;29;20457;-74
2022/11/15 17:25:40;;;;;;;9.33;5.80;;;13.30;99.90;;;;;;4952491;28;20457;-74
2022/11/15 17:28:06;;;;;;;10.07;6.90;;;13.20;99.90;;;;;;4953598;28;20857;-73
2022/11/15 17:30:34;;;;;;;13.43;5.47;;;13.20;99.90;;;;;;4953770;28;20857;-74
2022/11/15 17:33:02;;;;;;;8.83;6.57;;;13.20;99.90;;;;;;4953253;28;20592;-73
2022/11/15 17:35:30;;;;;;;8.93;6.20;;;13.20;99.90;;;;;;4952645;29;20480;-73
2022/11/15 17:37:57;;;;;;;6.60;5.17;;;13.20;99.90;;;;;;4953173;28;20465;-73
2022/11/15 17:40:24;;;;;;;8.10;5.83;;;13.20;99.90;;;;;;4953697;28;20457;-73
2022/11/15 17:42:50;;;;;;;10.50;6.83;;;13.10;99.90;;;;;;4953679;28;20461;-73
2022/11/15 17:45:17;;;;;;;11.10;7.00;;;13.10;99.90;;;;;;4952936;28;20465;-74
2022/11/15 17:47:44;;;;;;;11.07;7.17;;;13.10;99.90;;;;;;4953526;28;20508;-74
2022/11/15 17:50:11;;;;;;;8.30;6.47;;;13.00;99.90;;;;;;4953224;29;20842;-74
2022/11/15 17:52:39;;;;;;;8.87;6.07;;;13.10;99.90;;;;;;4952765;28;20532;-74
2022/11/15 17:55:06;;;;;;;10.37;6.87;;;13.00;99.90;;;;;;4952683;28;20457;-73
2022/11/15 17:57:33;;;;;;;16.60;11.90;;;13.00;99.90;;;;;;4953123;29;20465;-74
2022/11/15 18:00:00;;;;;;;29.47;16.50;;;13.00;99.90;;;;;;4953150;28;20976;-74
2022/11/15 18:02:27;;;;;;;22.57;14.53;;;13.00;99.90;;;;;;4952881;28;20493;-75